createdAt,value
2019-01-11T00:01:56.861Z,108.83
2019-01-11T00:04:24.708Z,87.23
2019-01-11T00:06:52.286Z,90.47
2019-01-11T00:09:19.872Z,103.70
2019-01-11T00:11:47.400Z,102.17
2019-01-11T00:14:15.268Z,93.70
2019-01-11T00:16:42.796Z,86.53
2019-01-11T00:19:10.254Z,91.83
2019-01-11T00:21:37.852Z,103.97
2019-01-11T00:24:05.682Z,89.77
2019-01-11T00:26:33.207Z,93.27
2019-01-11T00:29:00.841Z,89.03
2019-01-11T00:31:28.338Z,107.07
2019-01-11T00:33:55.831Z,119.53
2019-01-11T00:36:23.388Z,103.53
2019-01-11T00:38:50.897Z,109.60
2019-01-11T00:41:18.392Z,117.77
2019-01-11T00:43:45.944Z,116.97
2019-01-11T00:46:13.460Z,108.47
2019-01-11T00:48:40.942Z,95.30
2019-01-11T00:51:08.486Z,92.70
2019-01-11T00:53:36.006Z,100.90
2019-01-11T00:56:03.980Z,97.27
2019-01-11T00:58:31.512Z,88.77
2019-01-11T01:00:58.995Z,86.37
2019-01-11T01:03:26.498Z,90.73
2019-01-11T01:05:54.035Z,93.00
2019-01-11T01:08:21.528Z,86.60
2019-01-11T01:10:49.042Z,90.07
2019-01-11T01:13:16.774Z,99.97
2019-01-11T01:15:44.271Z,105.23
2019-01-11T01:18:11.773Z,89.97
2019-01-11T01:20:39.292Z,97.40
2019-01-11T01:23:06.785Z,103.17
2019-01-11T01:25:34.284Z,103.43
2019-01-11T01:28:01.836Z,114.70
2019-01-11T01:30:29.341Z,91.47
2019-01-11T01:32:56.834Z,88.17
2019-01-11T01:35:24.387Z,108.43
2019-01-11T01:37:51.884Z,99.53
2019-01-11T01:40:19.372Z,105.70
2019-01-11T01:42:46.913Z,100.90
2019-01-11T01:45:15.179Z,126.23
2019-01-11T01:47:42.673Z,104.43
2019-01-11T01:50:10.546Z,99.90
2019-01-11T01:52:38.034Z,93.17
2019-01-11T01:55:06.712Z,111.30
2019-01-11T01:57:34.229Z,119.27
2019-01-11T02:00:01.727Z,100.77
2019-01-11T02:02:29.201Z,124.27
2019-01-11T02:04:56.726Z,109.67
2019-01-11T02:07:24.197Z,105.10
2019-01-11T02:09:51.678Z,101.27
2019-01-11T02:12:19.218Z,120.20
2019-01-11T02:14:46.700Z,116.67
2019-01-11T02:17:15.381Z,117.93
2019-01-11T02:19:42.881Z,146.00
2019-01-11T02:22:10.360Z,127.27
2019-01-11T02:24:37.849Z,110.73
2019-01-11T02:27:05.385Z,114.40
2019-01-11T02:29:32.880Z,112.50
2019-01-11T02:32:00.349Z,107.10
2019-01-11T02:34:27.873Z,91.03
2019-01-11T02:36:55.369Z,111.03
2019-01-11T02:39:22.882Z,101.97
2019-01-11T02:41:50.413Z,113.53
2019-01-11T02:44:17.915Z,115.03
2019-01-11T02:46:45.444Z,108.67
2019-01-11T02:49:12.990Z,116.47
2019-01-11T02:51:40.473Z,89.40
2019-01-11T02:54:07.994Z,103.20
2019-01-11T02:56:35.480Z,103.57
2019-01-11T02:59:03.086Z,108.93
2019-01-11T03:01:30.633Z,112.33
2019-01-11T23:24:30.945Z,56.83
2019-01-11T23:26:58.435Z,53.73
2019-01-11T23:29:25.999Z,61.47
2019-01-11T23:31:53.541Z,63.07
2019-01-11T23:34:21.033Z,59.57
2019-01-11T23:36:48.515Z,79.00
2019-01-11T23:39:16.131Z,50.20
2019-01-11T23:41:43.628Z,44.77
2019-01-11T23:44:11.123Z,68.30
2019-01-11T23:46:38.645Z,52.57
2019-01-11T23:49:06.155Z,53.70
2019-01-11T23:51:33.653Z,52.73
2019-01-11T23:54:01.205Z,41.03
2019-01-11T23:56:28.711Z,45.63
2019-01-11T23:58:56.209Z,43.83
